Yuncos, Spain
Current Conditions -  °F | °C
As of 7:00 PM on Saturday 25 Oct 2014 (Local Time) from LEGT Reporting Station
Clear Clear  
Wind Chill: 77°   Ceiling: Unl
Heat Index: 77°   Visibility: 6mi
Dew Point: 39°   Wind: 0mph
Humidity: 26%   Direction: NA
Pressure: 30.15"   Gusts: NA
Location:  40.09°N, 3.87°W
Report Text: LEGT 251700Z 00000KT CAVOK 25/04 Q1021
Loading
Personal Weather Stations






























Interactive Weather Map New forecast layout! Learn more

10-Day Weather Forecast

Advertisements
Track Severe Weather on mobile